createdAt,value
2023-05-04T00:02:15.138Z,9.53
2023-05-04T00:07:19.257Z,9.51
2023-05-04T00:12:23.239Z,9.50
2023-05-04T00:17:27.522Z,9.40
2023-05-04T00:22:31.757Z,9.27
2023-05-04T00:27:35.821Z,9.18
2023-05-04T00:32:39.710Z,9.16
2023-05-04T00:37:45.586Z,9.12
2023-05-04T00:42:49.553Z,8.99
2023-05-04T00:47:54.840Z,8.86
2023-05-04T00:53:06.165Z,8.76
2023-05-04T00:58:09.911Z,8.73
2023-05-04T01:03:13.972Z,8.63
2023-05-04T01:08:24.687Z,8.46
2023-05-04T01:13:31.096Z,8.36
2023-05-04T01:18:35.708Z,8.30
2023-05-04T01:23:39.687Z,8.21
2023-05-04T01:28:49.504Z,8.15
2023-05-04T01:33:54.423Z,8.18
2023-05-04T01:39:02.972Z,8.14
2023-05-04T01:44:07.320Z,8.02
2023-05-04T01:49:11.500Z,7.93
2023-05-04T01:54:16.459Z,7.89
2023-05-04T01:59:20.266Z,7.83
2023-05-04T02:04:24.745Z,7.75
2023-05-04T02:09:28.984Z,7.69
2023-05-04T02:14:34.948Z,7.64
2023-05-04T02:19:39.412Z,7.59
2023-05-04T02:24:44.017Z,7.48
2023-05-04T02:29:48.272Z,7.32
2023-05-04T02:34:52.633Z,7.19
2023-05-04T02:39:56.770Z,7.08
2023-05-04T02:45:00.874Z,6.98
2023-05-04T02:50:08.956Z,6.95
2023-05-04T02:55:13.200Z,6.89
2023-05-04T03:00:18.561Z,6.74
2023-05-04T03:05:23.033Z,6.63
2023-05-04T03:10:27.635Z,6.50
2023-05-04T03:15:32.416Z,6.33
2023-05-04T03:20:36.513Z,6.19
2023-05-04T03:25:40.946Z,6.08
2023-05-04T03:30:44.982Z,6.03
2023-05-04T03:35:49.910Z,6.03
2023-05-04T03:40:53.822Z,5.97
2023-05-04T03:45:57.700Z,5.89
2023-05-04T03:51:01.778Z,5.92
2023-05-04T03:56:08.701Z,5.82
2023-05-04T04:01:12.656Z,5.73
2023-05-04T04:06:16.520Z,5.66
2023-05-04T04:11:20.504Z,5.64
2023-05-04T04:16:25.881Z,5.65
2023-05-04T04:21:30.691Z,5.71
2023-05-04T04:26:36.271Z,5.83
2023-05-04T04:31:40.449Z,5.90
2023-05-04T04:36:44.694Z,6.01
2023-05-04T04:41:48.976Z,6.20
2023-05-04T04:46:53.610Z,6.39
2023-05-04T04:51:57.544Z,6.49
2023-05-04T04:57:02.012Z,6.53
2023-05-04T05:02:06.189Z,6.66
2023-05-04T05:07:10.235Z,6.82
2023-05-04T05:12:16.444Z,7.01
2023-05-04T05:17:20.945Z,7.18
2023-05-04T05:22:25.298Z,7.35
2023-05-04T05:27:30.960Z,7.56
2023-05-04T05:32:34.966Z,7.78
2023-05-04T05:37:39.117Z,8.00
2023-05-04T05:42:44.556Z,8.24
2023-05-04T05:47:48.845Z,8.51
2023-05-04T05:52:53.150Z,8.83
2023-05-04T05:57:57.361Z,9.18
2023-05-04T06:03:01.919Z,9.50
2023-05-04T06:08:06.944Z,9.75
2023-05-04T06:13:11.182Z,9.98
2023-05-04T06:18:15.456Z,10.10
2023-05-04T06:23:20.154Z,10.22
2023-05-04T06:28:24.293Z,10.32
2023-05-04T06:33:28.335Z,10.43
2023-05-04T06:38:32.321Z,10.49
2023-05-04T06:43:42.115Z,10.55
2023-05-04T06:48:46.570Z,10.62
2023-05-04T06:53:50.932Z,10.72
2023-05-04T06:58:55.009Z,10.74
2023-05-04T07:03:59.500Z,10.72
2023-05-04T07:09:05.495Z,10.70
2023-05-04T07:14:10.537Z,10.73
2023-05-04T07:19:14.510Z,10.83
2023-05-04T07:24:18.944Z,10.94
2023-05-04T07:29:23.116Z,11.09
2023-05-04T07:34:37.904Z,11.23
2023-05-04T07:39:46.180Z,11.39
2023-05-04T07:44:50.062Z,11.56
2023-05-04T07:53:44.240Z,11.89
2023-05-04T07:58:52.313Z,12.08
2023-05-04T08:04:00.334Z,12.30
2023-05-04T08:09:08.155Z,12.45
2023-05-04T08:14:15.854Z,12.59
2023-05-04T08:19:23.470Z,12.79
2023-05-04T08:24:32.908Z,13.00
2023-05-04T08:29:40.135Z,13.24
2023-05-04T08:34:47.497Z,13.39
2023-05-04T08:39:54.807Z,13.49
2023-05-04T08:45:03.020Z,13.55
2023-05-04T08:50:12.412Z,13.80
2023-05-04T08:55:20.738Z,13.99
2023-05-04T09:00:30.017Z,14.12
2023-05-04T09:05:38.639Z,14.15
2023-05-04T09:10:46.089Z,14.12
2023-05-04T09:16:08.734Z,14.01
2023-05-04T09:21:17.401Z,14.08
2023-05-04T09:26:33.164Z,14.04
2023-05-04T09:31:48.295Z,13.98
2023-05-04T09:37:05.526Z,13.83
2023-05-04T09:42:20.973Z,13.72
2023-05-04T09:47:34.821Z,13.75
2023-05-04T09:52:43.788Z,13.78
2023-05-04T09:57:52.881Z,13.85
2023-05-04T10:03:00.593Z,13.99
2023-05-04T10:08:09.830Z,14.11
2023-05-04T10:13:20.021Z,14.12
2023-05-04T10:18:41.160Z,14.06
2023-05-04T10:24:16.980Z,14.04
2023-05-04T10:29:29.294Z,14.05
2023-05-04T10:34:37.550Z,14.07
2023-05-04T10:39:54.347Z,14.11
2023-05-04T10:45:02.220Z,14.11
2023-05-04T10:50:14.552Z,14.10
2023-05-04T10:55:22.834Z,14.04
2023-05-04T11:00:41.476Z,14.02
2023-05-04T11:05:51.209Z,13.96
2023-05-04T11:11:07.057Z,14.03
2023-05-04T11:16:15.166Z,14.03
2023-05-04T11:21:29.034Z,14.01
2023-05-04T11:26:46.472Z,14.06
2023-05-04T11:31:59.503Z,14.15
2023-05-04T11:37:08.817Z,14.17
2023-05-04T11:42:16.487Z,14.21
2023-05-04T11:47:24.026Z,14.24
2023-05-04T11:52:34.900Z,14.26
2023-05-04T11:57:42.363Z,14.36
2023-05-04T12:02:57.240Z,14.30
2023-05-04T12:08:08.803Z,14.26
2023-05-04T12:13:20.099Z,14.28
2023-05-04T12:18:30.203Z,14.23
2023-05-04T12:23:38.068Z,14.07
2023-05-04T12:28:46.584Z,13.99
2023-05-04T12:33:54.110Z,14.05
2023-05-04T12:39:01.932Z,14.13
2023-05-04T12:44:12.966Z,14.22
2023-05-04T12:49:21.056Z,14.30
2023-05-04T12:54:29.419Z,14.38
2023-05-04T12:59:37.051Z,14.43
2023-05-04T13:04:44.736Z,14.51
2023-05-04T13:09:54.024Z,14.62
2023-05-04T13:15:02.617Z,14.64
2023-05-04T13:20:12.080Z,14.68
2023-05-04T13:25:19.791Z,14.72
2023-05-04T13:30:28.431Z,14.78
2023-05-04T13:35:36.092Z,14.86
2023-05-04T13:40:44.971Z,14.91
2023-05-04T13:45:57.403Z,14.98
2023-05-04T13:51:05.627Z,14.91
2023-05-04T13:56:13.254Z,14.84
2023-05-04T14:01:21.071Z,14.88
2023-05-04T14:06:29.980Z,14.91
2023-05-04T14:11:37.924Z,14.93
2023-05-04T14:16:45.336Z,14.89
2023-05-04T14:21:52.903Z,14.87
2023-05-04T14:27:00.202Z,14.88
2023-05-04T14:32:08.043Z,14.87
2023-05-04T14:37:15.940Z,14.88
2023-05-04T14:42:23.289Z,14.90
2023-05-04T14:47:31.375Z,14.91
2023-05-04T14:52:38.819Z,14.90
2023-05-04T14:57:46.656Z,14.91
2023-05-04T15:02:55.790Z,14.91
2023-05-04T15:08:03.751Z,14.90
2023-05-04T15:13:12.691Z,14.88
2023-05-04T15:18:21.203Z,14.84
2023-05-04T15:23:28.945Z,14.79
2023-05-04T15:28:36.607Z,14.78
2023-05-04T15:33:44.265Z,14.82
2023-05-04T15:38:51.837Z,14.85
2023-05-04T15:43:59.875Z,14.86
2023-05-04T15:54:26.156Z,14.87
2023-05-04T15:59:33.854Z,14.88
2023-05-04T16:04:41.478Z,14.90
2023-05-04T16:09:48.822Z,14.87
2023-05-04T16:14:56.090Z,14.83
2023-05-04T16:20:04.063Z,14.81
2023-05-04T16:25:12.503Z,14.83
2023-05-04T16:30:20.026Z,14.80
2023-05-04T16:35:28.374Z,14.79
2023-05-04T16:40:38.359Z,14.77
2023-05-04T16:45:46.457Z,14.75
2023-05-04T16:50:54.107Z,14.75
2023-05-04T16:56:02.078Z,14.75
2023-05-04T17:01:11.335Z,14.71
2023-05-04T17:06:19.072Z,14.64
2023-05-04T17:11:27.064Z,14.59
2023-05-04T17:16:34.647Z,14.52
2023-05-04T17:21:42.496Z,14.46
2023-05-04T17:26:49.906Z,14.38
2023-05-04T17:31:57.962Z,14.26
2023-05-04T17:37:05.677Z,14.16
2023-05-04T17:42:16.419Z,14.02
2023-05-04T17:47:23.842Z,13.86
2023-05-04T17:52:32.083Z,13.70
2023-05-04T17:57:39.721Z,13.54
2023-05-04T18:02:47.325Z,13.39
2023-05-04T18:07:55.765Z,13.26
2023-05-04T18:13:02.960Z,13.12
2023-05-04T18:18:11.342Z,12.97
2023-05-04T18:23:18.757Z,12.84
2023-05-04T18:28:26.066Z,12.68
2023-05-04T18:33:33.636Z,12.49
2023-05-04T18:38:41.242Z,12.29
2023-05-04T18:43:49.714Z,12.17
2023-05-04T18:48:57.697Z,12.01
2023-05-04T18:54:05.219Z,11.85
2023-05-04T18:59:12.917Z,11.72
2023-05-04T19:04:20.431Z,11.66
2023-05-04T19:09:28.210Z,11.61
2023-05-04T19:14:35.855Z,11.48
2023-05-04T19:19:45.165Z,11.26
2023-05-04T19:24:54.138Z,11.06
2023-05-04T19:30:01.470Z,10.89
2023-05-04T19:35:10.286Z,10.71
2023-05-04T19:40:17.725Z,10.65
2023-05-04T19:45:25.502Z,10.55
2023-05-04T19:50:33.028Z,10.38
2023-05-04T19:55:40.364Z,10.28
2023-05-04T20:00:47.567Z,10.20
2023-05-04T20:05:56.294Z,10.18
2023-05-04T20:11:03.724Z,10.13
2023-05-04T20:16:11.183Z,9.99
2023-05-04T20:21:18.493Z,9.89
2023-05-04T20:26:25.648Z,9.81
2023-05-04T20:31:32.788Z,9.80
2023-05-04T20:36:40.178Z,9.75
2023-05-04T20:41:47.979Z,9.70
2023-05-04T20:52:38.875Z,9.60
2023-05-04T20:57:46.347Z,9.48
2023-05-04T21:02:53.688Z,9.41
2023-05-04T21:08:01.355Z,9.30
2023-05-04T21:13:09.089Z,9.15
2023-05-04T21:18:17.226Z,9.04
2023-05-04T21:23:25.316Z,8.96
2023-05-04T21:28:33.099Z,8.90
2023-05-04T21:33:40.259Z,8.85
2023-05-04T21:38:47.670Z,8.81
2023-05-04T21:43:54.857Z,8.76
2023-05-04T21:49:02.253Z,8.73
2023-05-04T21:54:09.863Z,8.68
2023-05-04T21:59:17.280Z,8.62
2023-05-04T22:04:24.760Z,8.57
2023-05-04T22:09:32.198Z,8.60
2023-05-04T22:14:41.624Z,8.59
2023-05-04T22:19:49.783Z,8.54
2023-05-04T22:24:57.360Z,8.51
2023-05-04T22:30:05.279Z,8.46
2023-05-04T22:35:12.886Z,8.46
2023-05-04T22:40:20.409Z,8.46
2023-05-04T22:45:28.105Z,8.43
2023-05-04T22:50:36.041Z,8.39
2023-05-04T22:55:45.849Z,8.36
2023-05-04T23:00:53.441Z,8.33
2023-05-04T23:06:02.692Z,8.30
2023-05-04T23:11:10.105Z,8.24
2023-05-04T23:16:17.463Z,8.11
2023-05-04T23:21:25.427Z,8.04
2023-05-04T23:26:32.572Z,8.04
2023-05-04T23:31:39.778Z,7.97
2023-05-04T23:36:47.100Z,7.93
2023-05-04T23:41:54.329Z,7.88
2023-05-04T23:47:01.451Z,7.90
2023-05-04T23:52:08.767Z,7.92
2023-05-04T23:57:15.966Z,7.96
